sensor_id;sensor_type;location;lat;lon;timestamp;P1;durP1;ratioP1;P2;durP2;ratioP2
51194;SDS011;37259;49.972;19.850;2022-09-01T00:00:03;2.2;;;4.2;;
51194;SDS011;37259;49.972;19.850;2022-09-01T00:01:01;2.2;;;4.2;;
51194;SDS011;37259;49.972;19.850;2022-09-01T00:02:01;2.2;;;4.2;;
51194;SDS011;37259;49.972;19.850;2022-09-01T00:03:01;2.2;;;4.2;;
51194;SDS011;37259;49.972;19.850;2022-09-01T00:04:01;2.2;;;4.2;;
51194;SDS011;37259;49.972;19.850;2022-09-01T00:05:01;2.2;;;4.2;;
51194;SDS011;37259;49.972;19.850;2022-09-01T00:06:01;2.2;;;4.2;;
51194;SDS011;37259;49.972;19.850;2022-09-01T00:07:01;2.2;;;4.2;;
51194;SDS011;37259;49.972;19.850;2022-09-01T00:08:01;2.2;;;4.2;;
51194;SDS011;37259;49.972;19.850;2022-09-01T00:09:03;2.2;;;4.2;;
51194;SDS011;37259;49.972;19.850;2022-09-01T00:10:02;2.2;;;4.2;;
51194;SDS011;37259;49.972;19.850;2022-09-01T00:11:01;2.2;;;4.2;;
51194;SDS011;37259;49.972;19.850;2022-09-01T00:12:02;2.2;;;4.2;;
51194;SDS011;37259;49.972;19.850;2022-09-01T00:13:01;2.2;;;4.2;;
51194;SDS011;37259;49.972;19.850;2022-09-01T00:14:01;2.2;;;4.2;;
51194;SDS011;37259;49.972;19.850;2022-09-01T00:15:01;2.2;;;4.2;;
51194;SDS011;37259;49.972;19.850;2022-09-01T00:16:01;2.2;;;4.2;;
51194;SDS011;37259;49.972;19.850;2022-09-01T00:17:01;2.2;;;4.2;;
51194;SDS011;37259;49.972;19.850;2022-09-01T00:18:01;2.2;;;4.2;;
51194;SDS011;37259;49.972;19.850;2022-09-01T00:19:01;2.2;;;4.2;;
51194;SDS011;37259;49.972;19.850;2022-09-01T00:20:01;2.2;;;4.2;;
51194;SDS011;37259;49.972;19.850;2022-09-01T00:21:01;2.2;;;4.2;;
51194;SDS011;37259;49.972;19.850;2022-09-01T00:22:01;2.2;;;4.2;;
51194;SDS011;37259;49.972;19.850;2022-09-01T00:23:01;2.2;;;4.2;;
51194;SDS011;37259;49.972;19.850;2022-09-01T00:24:01;2.2;;;4.2;;
51194;SDS011;37259;49.972;19.850;2022-09-01T00:25:01;2.2;;;4.2;;
51194;SDS011;37259;49.972;19.850;2022-09-01T00:26:01;2.2;;;4.2;;
51194;SDS011;37259;49.972;19.850;2022-09-01T00:27:01;2.2;;;4.2;;
51194;SDS011;37259;49.972;19.850;2022-09-01T00:28:01;2.2;;;4.2;;
51194;SDS011;37259;49.972;19.850;2022-09-01T00:29:01;2.7;;;6.4;;
51194;SDS011;37259;49.972;19.850;2022-09-01T00:30:01;2.7;;;6.4;;
51194;SDS011;37259;49.972;19.850;2022-09-01T00:31:01;2.7;;;6.4;;
51194;SDS011;37259;49.972;19.850;2022-09-01T00:32:01;2.7;;;6.4;;
51194;SDS011;37259;49.972;19.850;2022-09-01T00:33:01;2.7;;;6.4;;
51194;SDS011;37259;49.972;19.850;2022-09-01T00:34:01;2.7;;;6.4;;
51194;SDS011;37259;49.972;19.850;2022-09-01T00:35:01;2.7;;;6.4;;
51194;SDS011;37259;49.972;19.850;2022-09-01T00:36:01;2.7;;;6.4;;
51194;SDS011;37259;49.972;19.850;2022-09-01T00:37:01;2.7;;;6.4;;
51194;SDS011;37259;49.972;19.850;2022-09-01T00:38:01;2.7;;;6.4;;
51194;SDS011;37259;49.972;19.850;2022-09-01T00:39:01;2.7;;;6.4;;
51194;SDS011;37259;49.972;19.850;2022-09-01T00:40:01;2.7;;;6.4;;
51194;SDS011;37259;49.972;19.850;2022-09-01T00:41:01;2.7;;;6.4;;
51194;SDS011;37259;49.972;19.850;2022-09-01T00:42:01;2.7;;;6.4;;
51194;SDS011;37259;49.972;19.850;2022-09-01T00:43:09;2.7;;;6.4;;
51194;SDS011;37259;49.972;19.850;2022-09-01T00:44:02;2.7;;;6.4;;
51194;SDS011;37259;49.972;19.850;2022-09-01T00:45:01;2.7;;;6.4;;
51194;SDS011;37259;49.972;19.850;2022-09-01T00:46:01;2.7;;;6.4;;
51194;SDS011;37259;49.972;19.850;2022-09-01T00:47:01;2.7;;;6.4;;
51194;SDS011;37259;49.972;19.850;2022-09-01T00:48:01;2.7;;;6.4;;
51194;SDS011;37259;49.972;19.850;2022-09-01T00:49:02;2.7;;;6.4;;
51194;SDS011;37259;49.972;19.850;2022-09-01T00:50:01;2.7;;;6.4;;
51194;SDS011;37259;49.972;19.850;2022-09-01T00:51:01;2.7;;;6.4;;
51194;SDS011;37259;49.972;19.850;2022-09-01T00:52:02;2.7;;;6.4;;
51194;SDS011;37259;49.972;19.850;2022-09-01T00:53:01;2.7;;;6.4;;
51194;SDS011;37259;49.972;19.850;2022-09-01T00:54:01;2.7;;;6.4;;
51194;SDS011;37259;49.972;19.850;2022-09-01T00:55:01;2.7;;;6.4;;
51194;SDS011;37259;49.972;19.850;2022-09-01T00:56:01;2.7;;;6.4;;
51194;SDS011;37259;49.972;19.850;2022-09-01T00:57:01;2.7;;;6.4;;
51194;SDS011;37259;49.972;19.850;2022-09-01T00:58:01;2.7;;;6.4;;
51194;SDS011;37259;49.972;19.850;2022-09-01T00:59:01;2.1;;;4.1;;
51194;SDS011;37259;49.972;19.850;2022-09-01T01:00:04;2.1;;;4.1;;
51194;SDS011;37259;49.972;19.850;2022-09-01T01:01:01;2.1;;;4.1;;
51194;SDS011;37259;49.972;19.850;2022-09-01T01:02:01;2.1;;;4.1;;
51194;SDS011;37259;49.972;19.850;2022-09-01T01:03:01;2.1;;;4.1;;
51194;SDS011;37259;49.972;19.850;2022-09-01T01:04:01;2.1;;;4.1;;
51194;SDS011;37259;49.972;19.850;2022-09-01T01:05:01;2.1;;;4.1;;
51194;SDS011;37259;49.972;19.850;2022-09-01T01:06:01;2.1;;;4.1;;
51194;SDS011;37259;49.972;19.850;2022-09-01T01:07:01;2.1;;;4.1;;
51194;SDS011;37259;49.972;19.850;2022-09-01T01:08:01;2.1;;;4.1;;
51194;SDS011;37259;49.972;19.850;2022-09-01T01:09:01;2.1;;;4.1;;
51194;SDS011;37259;49.972;19.850;2022-09-01T01:10:01;2.1;;;4.1;;
51194;SDS011;37259;49.972;19.850;2022-09-01T01:11:02;2.1;;;4.1;;
51194;SDS011;37259;49.972;19.850;2022-09-01T01:12:02;2.1;;;4.1;;
51194;SDS011;37259;49.972;19.850;2022-09-01T01:13:01;2.1;;;4.1;;
51194;SDS011;37259;49.972;19.850;2022-09-01T01:14:02;2.1;;;4.1;;
51194;SDS011;37259;49.972;19.850;2022-09-01T01:15:01;2.1;;;4.1;;
51194;SDS011;37259;49.972;19.850;2022-09-01T01:16:01;2.1;;;4.1;;
51194;SDS011;37259;49.972;19.850;2022-09-01T01:17:01;2.1;;;4.1;;
51194;SDS011;37259;49.972;19.850;2022-09-01T01:18:01;2.1;;;4.1;;
51194;SDS011;37259;49.972;19.850;2022-09-01T01:19:01;2.1;;;4.1;;
51194;SDS011;37259;49.972;19.850;2022-09-01T01:20:01;2.1;;;4.1;;
51194;SDS011;37259;49.972;19.850;2022-09-01T01:21:01;2.1;;;4.1;;
51194;SDS011;37259;49.972;19.850;2022-09-01T01:22:01;2.1;;;4.1;;
51194;SDS011;37259;49.972;19.850;2022-09-01T01:23:03;2.1;;;4.1;;
51194;SDS011;37259;49.972;19.850;2022-09-01T01:24:01;2.1;;;4.1;;
51194;SDS011;37259;49.972;19.850;2022-09-01T01:25:01;2.1;;;4.1;;
51194;SDS011;37259;49.972;19.850;2022-09-01T01:26:01;2.1;;;4.1;;
51194;SDS011;37259;49.972;19.850;2022-09-01T01:27:01;2.1;;;4.1;;
51194;SDS011;37259;49.972;19.850;2022-09-01T01:28:03;2.1;;;4.1;;
51194;SDS011;37259;49.972;19.850;2022-09-01T01:29:01;2;;;5;;
51194;SDS011;37259;49.972;19.850;2022-09-01T01:30:02;2;;;5;;
51194;SDS011;37259;49.972;19.850;2022-09-01T01:31:02;2;;;5;;
51194;SDS011;37259;49.972;19.850;2022-09-01T01:32:01;2;;;5;;
51194;SDS011;37259;49.972;19.850;2022-09-01T01:33:01;2;;;5;;
51194;SDS011;37259;49.972;19.850;2022-09-01T01:34:01;2;;;5;;
51194;SDS011;37259;49.972;19.850;2022-09-01T01:35:01;2;;;5;;
51194;SDS011;37259;49.972;19.850;2022-09-01T01:36:01;2;;;5;;
51194;SDS011;37259;49.972;19.850;2022-09-01T01:37:01;2;;;5;;
51194;SDS011;37259;49.972;19.850;2022-09-01T01:38:01;2;;;5;;
51194;SDS011;37259;49.972;19.850;2022-09-01T01:39:03;2;;;5;;
51194;SDS011;37259;49.972;19.850;2022-09-01T01:40:01;2;;;5;;
51194;SDS011;37259;49.972;19.850;2022-09-01T01:41:01;2;;;5;;
51194;SDS011;37259;49.972;19.850;2022-09-01T01:42:01;2;;;5;;
51194;SDS011;37259;49.972;19.850;2022-09-01T01:43:01;2;;;5;;
51194;SDS011;37259;49.972;19.850;2022-09-01T01:44:02;2;;;5;;
51194;SDS011;37259;49.972;19.850;2022-09-01T01:45:01;2;;;5;;
51194;SDS011;37259;49.972;19.850;2022-09-01T01:46:01;2;;;5;;
51194;SDS011;37259;49.972;19.850;2022-09-01T01:47:01;2;;;5;;
51194;SDS011;37259;49.972;19.850;2022-09-01T01:48:01;2;;;5;;
51194;SDS011;37259;49.972;19.850;2022-09-01T01:49:01;2;;;5;;
51194;SDS011;37259;49.972;19.850;2022-09-01T01:50:01;2;;;5;;
51194;SDS011;37259;49.972;19.850;2022-09-01T01:51:01;2;;;5;;
51194;SDS011;37259;49.972;19.850;2022-09-01T01:52:01;2;;;5;;
51194;SDS011;37259;49.972;19.850;2022-09-01T01:53:01;2;;;5;;
51194;SDS011;37259;49.972;19.850;2022-09-01T01:54:01;2;;;5;;
51194;SDS011;37259;49.972;19.850;2022-09-01T01:55:01;2;;;5;;
51194;SDS011;37259;49.972;19.850;2022-09-01T01:56:01;2;;;5;;
51194;SDS011;37259;49.972;19.850;2022-09-01T01:57:01;2;;;5;;
51194;SDS011;37259;49.972;19.850;2022-09-01T01:58:01;2;;;5;;
51194;SDS011;37259;49.972;19.850;2022-09-01T01:59:02;2.2;;;5;;
51194;SDS011;37259;49.972;19.850;2022-09-01T02:00:01;2.2;;;5;;
51194;SDS011;37259;49.972;19.850;2022-09-01T02:01:01;2.2;;;5;;
51194;SDS011;37259;49.972;19.850;2022-09-01T02:02:01;2.2;;;5;;
51194;SDS011;37259;49.972;19.850;2022-09-01T02:03:01;2.2;;;5;;
51194;SDS011;37259;49.972;19.850;2022-09-01T02:04:01;2.2;;;5;;
51194;SDS011;37259;49.972;19.850;2022-09-01T02:05:01;2.2;;;5;;
51194;SDS011;37259;49.972;19.850;2022-09-01T02:06:01;2.2;;;5;;
51194;SDS011;37259;49.972;19.850;2022-09-01T02:07:01;2.2;;;5;;
51194;SDS011;37259;49.972;19.850;2022-09-01T02:08:02;2.2;;;5;;
51194;SDS011;37259;49.972;19.850;2022-09-01T02:09:01;2.2;;;5;;
51194;SDS011;37259;49.972;19.850;2022-09-01T02:10:01;2.2;;;5;;
51194;SDS011;37259;49.972;19.850;2022-09-01T02:11:01;2.2;;;5;;
51194;SDS011;37259;49.972;19.850;2022-09-01T02:12:01;2.2;;;5;;
51194;SDS011;37259;49.972;19.850;2022-09-01T02:13:02;2.2;;;5;;
51194;SDS011;37259;49.972;19.850;2022-09-01T02:14:01;2.2;;;5;;
51194;SDS011;37259;49.972;19.850;2022-09-01T02:15:01;2.2;;;5;;
51194;SDS011;37259;49.972;19.850;2022-09-01T02:16:02;2.2;;;5;;
51194;SDS011;37259;49.972;19.850;2022-09-01T02:17:01;2.2;;;5;;
51194;SDS011;37259;49.972;19.850;2022-09-01T02:18:01;2.2;;;5;;
51194;SDS011;37259;49.972;19.850;2022-09-01T02:19:02;2.2;;;5;;
51194;SDS011;37259;49.972;19.850;2022-09-01T02:20:01;2.2;;;5;;
51194;SDS011;37259;49.972;19.850;2022-09-01T02:21:01;2.2;;;5;;
51194;SDS011;37259;49.972;19.850;2022-09-01T02:22:01;2.2;;;5;;
51194;SDS011;37259;49.972;19.850;2022-09-01T02:23:01;2.2;;;5;;
51194;SDS011;37259;49.972;19.850;2022-09-01T02:24:02;2.2;;;5;;
51194;SDS011;37259;49.972;19.850;2022-09-01T02:25:01;2.2;;;5;;
51194;SDS011;37259;49.972;19.850;2022-09-01T02:26:01;2.2;;;5;;
51194;SDS011;37259;49.972;19.850;2022-09-01T02:27:01;2.2;;;5;;
51194;SDS011;37259;49.972;19.850;2022-09-01T02:28:01;2.2;;;5;;
51194;SDS011;37259;49.972;19.850;2022-09-01T02:29:03;2.1;;;7.8;;
51194;SDS011;37259;49.972;19.850;2022-09-01T02:30:01;2.1;;;7.8;;
51194;SDS011;37259;49.972;19.850;2022-09-01T02:31:01;2.1;;;7.8;;
51194;SDS011;37259;49.972;19.850;2022-09-01T02:32:01;2.1;;;7.8;;
51194;SDS011;37259;49.972;19.850;2022-09-01T02:33:01;2.1;;;7.8;;
51194;SDS011;37259;49.972;19.850;2022-09-01T02:34:01;2.1;;;7.8;;
51194;SDS011;37259;49.972;19.850;2022-09-01T02:35:01;2.1;;;7.8;;
51194;SDS011;37259;49.972;19.850;2022-09-01T02:36:02;2.1;;;7.8;;
51194;SDS011;37259;49.972;19.850;2022-09-01T02:37:01;2.1;;;7.8;;
51194;SDS011;37259;49.972;19.850;2022-09-01T02:38:01;2.1;;;7.8;;
51194;SDS011;37259;49.972;19.850;2022-09-01T02:39:01;2.1;;;7.8;;
51194;SDS011;37259;49.972;19.850;2022-09-01T02:40:01;2.1;;;7.8;;
51194;SDS011;37259;49.972;19.850;2022-09-01T02:41:01;2.1;;;7.8;;
51194;SDS011;37259;49.972;19.850;2022-09-01T02:42:01;2.1;;;7.8;;
51194;SDS011;37259;49.972;19.850;2022-09-01T02:43:01;2.1;;;7.8;;
51194;SDS011;37259;49.972;19.850;2022-09-01T02:44:01;2.1;;;7.8;;
51194;SDS011;37259;49.972;19.850;2022-09-01T02:45:01;2.1;;;7.8;;
51194;SDS011;37259;49.972;19.850;2022-09-01T02:46:02;2.1;;;7.8;;
51194;SDS011;37259;49.972;19.850;2022-09-01T02:47:01;2.1;;;7.8;;
51194;SDS011;37259;49.972;19.850;2022-09-01T02:48:01;2.1;;;7.8;;
51194;SDS011;37259;49.972;19.850;2022-09-01T02:49:01;2.1;;;7.8;;
51194;SDS011;37259;49.972;19.850;2022-09-01T02:50:01;2.1;;;7.8;;
51194;SDS011;37259;49.972;19.850;2022-09-01T02:51:01;2.1;;;7.8;;
51194;SDS011;37259;49.972;19.850;2022-09-01T02:52:01;2.1;;;7.8;;
51194;SDS011;37259;49.972;19.850;2022-09-01T02:53:01;2.1;;;7.8;;
51194;SDS011;37259;49.972;19.850;2022-09-01T02:54:01;2.1;;;7.8;;
51194;SDS011;37259;49.972;19.850;2022-09-01T02:55:01;2.1;;;7.8;;
51194;SDS011;37259;49.972;19.850;2022-09-01T02:56:01;2.1;;;7.8;;
51194;SDS011;37259;49.972;19.850;2022-09-01T02:57:01;2.1;;;7.8;;
51194;SDS011;37259;49.972;19.850;2022-09-01T02:58:01;2.1;;;7.8;;
51194;SDS011;37259;49.972;19.850;2022-09-01T02:59:01;2.6;;;5.6;;
51194;SDS011;37259;49.972;19.850;2022-09-01T03:00:01;2.6;;;5.6;;
51194;SDS011;37259;49.972;19.850;2022-09-01T03:01:01;2.6;;;5.6;;
51194;SDS011;37259;49.972;19.850;2022-09-01T03:02:01;2.6;;;5.6;;
51194;SDS011;37259;49.972;19.850;2022-09-01T03:03:01;2.6;;;5.6;;
51194;SDS011;37259;49.972;19.850;2022-09-01T03:04:02;2.6;;;5.6;;
51194;SDS011;37259;49.972;19.850;2022-09-01T03:05:01;2.6;;;5.6;;
51194;SDS011;37259;49.972;19.850;2022-09-01T03:06:01;2.6;;;5.6;;
51194;SDS011;37259;49.972;19.850;2022-09-01T03:07:01;2.6;;;5.6;;
51194;SDS011;37259;49.972;19.850;2022-09-01T03:08:03;2.6;;;5.6;;
51194;SDS011;37259;49.972;19.850;2022-09-01T03:09:02;2.6;;;5.6;;
51194;SDS011;37259;49.972;19.850;2022-09-01T03:10:01;2.6;;;5.6;;
51194;SDS011;37259;49.972;19.850;2022-09-01T03:11:01;2.6;;;5.6;;
51194;SDS011;37259;49.972;19.850;2022-09-01T03:12:01;2.6;;;5.6;;
51194;SDS011;37259;49.972;19.850;2022-09-01T03:13:02;2.6;;;5.6;;
51194;SDS011;37259;49.972;19.850;2022-09-01T03:14:01;2.6;;;5.6;;
51194;SDS011;37259;49.972;19.850;2022-09-01T03:15:01;2.6;;;5.6;;
51194;SDS011;37259;49.972;19.850;2022-09-01T03:16:01;2.6;;;5.6;;
51194;SDS011;37259;49.972;19.850;2022-09-01T03:17:01;2.6;;;5.6;;
51194;SDS011;37259;49.972;19.850;2022-09-01T03:18:01;2.6;;;5.6;;
51194;SDS011;37259;49.972;19.850;2022-09-01T03:19:01;2.6;;;5.6;;
51194;SDS011;37259;49.972;19.850;2022-09-01T03:20:01;2.6;;;5.6;;
51194;SDS011;37259;49.972;19.850;2022-09-01T03:21:01;2.6;;;5.6;;
51194;SDS011;37259;49.972;19.850;2022-09-01T03:22:01;2.6;;;5.6;;
51194;SDS011;37259;49.972;19.850;2022-09-01T03:23:01;2.6;;;5.6;;
51194;SDS011;37259;49.972;19.850;2022-09-01T03:24:01;2.6;;;5.6;;
51194;SDS011;37259;49.972;19.850;2022-09-01T03:25:01;2.6;;;5.6;;
51194;SDS011;37259;49.972;19.850;2022-09-01T03:26:01;2.6;;;5.6;;
51194;SDS011;37259;49.972;19.850;2022-09-01T03:27:01;2.6;;;5.6;;
51194;SDS011;37259;49.972;19.850;2022-09-01T03:28:01;2.6;;;5.6;;
51194;SDS011;37259;49.972;19.850;2022-09-01T03:29:01;2.3;;;6.1;;
51194;SDS011;37259;49.972;19.850;2022-09-01T03:30:01;2.3;;;6.1;;
51194;SDS011;37259;49.972;19.850;2022-09-01T03:31:01;2.3;;;6.1;;
51194;SDS011;37259;49.972;19.850;2022-09-01T03:32:01;2.3;;;6.1;;
51194;SDS011;37259;49.972;19.850;2022-09-01T03:33:01;2.3;;;6.1;;
51194;SDS011;37259;49.972;19.850;2022-09-01T03:34:01;2.3;;;6.1;;
51194;SDS011;37259;49.972;19.850;2022-09-01T03:35:01;2.3;;;6.1;;
51194;SDS011;37259;49.972;19.850;2022-09-01T03:36:01;2.3;;;6.1;;
51194;SDS011;37259;49.972;19.850;2022-09-01T03:37:01;2.3;;;6.1;;
51194;SDS011;37259;49.972;19.850;2022-09-01T03:38:01;2.3;;;6.1;;
51194;SDS011;37259;49.972;19.850;2022-09-01T03:39:01;2.3;;;6.1;;
51194;SDS011;37259;49.972;19.850;2022-09-01T03:40:01;2.3;;;6.1;;
51194;SDS011;37259;49.972;19.850;2022-09-01T03:41:02;2.3;;;6.1;;
51194;SDS011;37259;49.972;19.850;2022-09-01T03:42:01;2.3;;;6.1;;
51194;SDS011;37259;49.972;19.850;2022-09-01T03:43:02;2.3;;;6.1;;
51194;SDS011;37259;49.972;19.850;2022-09-01T03:44:01;2.3;;;6.1;;
51194;SDS011;37259;49.972;19.850;2022-09-01T03:45:01;2.3;;;6.1;;
51194;SDS011;37259;49.972;19.850;2022-09-01T03:46:01;2.3;;;6.1;;
51194;SDS011;37259;49.972;19.850;2022-09-01T03:47:01;2.3;;;6.1;;
51194;SDS011;37259;49.972;19.850;2022-09-01T03:48:01;2.3;;;6.1;;
51194;SDS011;37259;49.972;19.850;2022-09-01T03:49:01;2.3;;;6.1;;
51194;SDS011;37259;49.972;19.850;2022-09-01T03:50:01;2.3;;;6.1;;
51194;SDS011;37259;49.972;19.850;2022-09-01T03:51:01;2.3;;;6.1;;
51194;SDS011;37259;49.972;19.850;2022-09-01T03:52:01;2.3;;;6.1;;
51194;SDS011;37259;49.972;19.850;2022-09-01T03:53:01;2.3;;;6.1;;
51194;SDS011;37259;49.972;19.850;2022-09-01T03:54:01;2.3;;;6.1;;
51194;SDS011;37259;49.972;19.850;2022-09-01T03:55:01;2.3;;;6.1;;
51194;SDS011;37259;49.972;19.850;2022-09-01T03:56:01;2.3;;;6.1;;
51194;SDS011;37259;49.972;19.850;2022-09-01T03:57:01;2.3;;;6.1;;
51194;SDS011;37259;49.972;19.850;2022-09-01T03:58:02;2.3;;;6.1;;
51194;SDS011;37259;49.972;19.850;2022-09-01T03:59:01;2.4;;;5.3;;
51194;SDS011;37259;49.972;19.850;2022-09-01T04:00:01;2.4;;;5.3;;
51194;SDS011;37259;49.972;19.850;2022-09-01T04:01:01;2.4;;;5.3;;
51194;SDS011;37259;49.972;19.850;2022-09-01T04:02:01;2.4;;;5.3;;
51194;SDS011;37259;49.972;19.850;2022-09-01T04:03:02;2.4;;;5.3;;
51194;SDS011;37259;49.972;19.850;2022-09-01T04:04:01;2.4;;;5.3;;
51194;SDS011;37259;49.972;19.850;2022-09-01T04:05:01;2.4;;;5.3;;
51194;SDS011;37259;49.972;19.850;2022-09-01T04:06:02;2.4;;;5.3;;
51194;SDS011;37259;49.972;19.850;2022-09-01T04:07:01;2.4;;;5.3;;
51194;SDS011;37259;49.972;19.850;2022-09-01T04:08:02;2.4;;;5.3;;
51194;SDS011;37259;49.972;19.850;2022-09-01T04:09:01;2.4;;;5.3;;
51194;SDS011;37259;49.972;19.850;2022-09-01T04:10:01;2.4;;;5.3;;
51194;SDS011;37259;49.972;19.850;2022-09-01T04:11:02;2.4;;;5.3;;
51194;SDS011;37259;49.972;19.850;2022-09-01T04:12:02;2.4;;;5.3;;
51194;SDS011;37259;49.972;19.850;2022-09-01T04:13:01;2.4;;;5.3;;
51194;SDS011;37259;49.972;19.850;2022-09-01T04:14:01;2.4;;;5.3;;
51194;SDS011;37259;49.972;19.850;2022-09-01T04:15:01;2.4;;;5.3;;
51194;SDS011;37259;49.972;19.850;2022-09-01T04:16:01;2.4;;;5.3;;
51194;SDS011;37259;49.972;19.850;2022-09-01T04:17:01;2.4;;;5.3;;
51194;SDS011;37259;49.972;19.850;2022-09-01T04:18:01;2.4;;;5.3;;
51194;SDS011;37259;49.972;19.850;2022-09-01T04:19:01;2.4;;;5.3;;
51194;SDS011;37259;49.972;19.850;2022-09-01T04:20:01;2.4;;;5.3;;
51194;SDS011;37259;49.972;19.850;2022-09-01T04:21:01;2.4;;;5.3;;
51194;SDS011;37259;49.972;19.850;2022-09-01T04:22:01;2.4;;;5.3;;
51194;SDS011;37259;49.972;19.850;2022-09-01T04:23:01;2.4;;;5.3;;
51194;SDS011;37259;49.972;19.850;2022-09-01T04:24:01;2.4;;;5.3;;
51194;SDS011;37259;49.972;19.850;2022-09-01T04:25:01;2.4;;;5.3;;
51194;SDS011;37259;49.972;19.850;2022-09-01T04:26:02;2.4;;;5.3;;
51194;SDS011;37259;49.972;19.850;2022-09-01T04:27:01;2.4;;;5.3;;
51194;SDS011;37259;49.972;19.850;2022-09-01T04:28:01;2.4;;;5.3;;
51194;SDS011;37259;49.972;19.850;2022-09-01T04:29:01;2.6;;;5.5;;
51194;SDS011;37259;49.972;19.850;2022-09-01T04:30:01;2.6;;;5.5;;
51194;SDS011;37259;49.972;19.850;2022-09-01T04:31:02;2.6;;;5.5;;
51194;SDS011;37259;49.972;19.850;2022-09-01T04:32:02;2.6;;;5.5;;
51194;SDS011;37259;49.972;19.850;2022-09-01T04:33:01;2.6;;;5.5;;
51194;SDS011;37259;49.972;19.850;2022-09-01T04:34:01;2.6;;;5.5;;
51194;SDS011;37259;49.972;19.850;2022-09-01T04:35:01;2.6;;;5.5;;
51194;SDS011;37259;49.972;19.850;2022-09-01T04:36:01;2.6;;;5.5;;
51194;SDS011;37259;49.972;19.850;2022-09-01T04:37:01;2.6;;;5.5;;
51194;SDS011;37259;49.972;19.850;2022-09-01T04:38:01;2.6;;;5.5;;
51194;SDS011;37259;49.972;19.850;2022-09-01T04:39:01;2.6;;;5.5;;
51194;SDS011;37259;49.972;19.850;2022-09-01T04:40:01;2.6;;;5.5;;
51194;SDS011;37259;49.972;19.850;2022-09-01T04:41:02;2.6;;;5.5;;
51194;SDS011;37259;49.972;19.850;2022-09-01T04:42:01;2.6;;;5.5;;
51194;SDS011;37259;49.972;19.850;2022-09-01T04:43:01;2.6;;;5.5;;
51194;SDS011;37259;49.972;19.850;2022-09-01T04:44:01;2.6;;;5.5;;
51194;SDS011;37259;49.972;19.850;2022-09-01T04:45:01;2.6;;;5.5;;
51194;SDS011;37259;49.972;19.850;2022-09-01T04:46:01;2.6;;;5.5;;
51194;SDS011;37259;49.972;19.850;2022-09-01T04:47:01;2.6;;;5.5;;
51194;SDS011;37259;49.972;19.850;2022-09-01T04:48:01;2.6;;;5.5;;
51194;SDS011;37259;49.972;19.850;2022-09-01T04:49:01;2.6;;;5.5;;
51194;SDS011;37259;49.972;19.850;2022-09-01T04:50:01;2.6;;;5.5;;
51194;SDS011;37259;49.972;19.850;2022-09-01T04:51:04;2.6;;;5.5;;
51194;SDS011;37259;49.972;19.850;2022-09-01T04:52:01;2.6;;;5.5;;
51194;SDS011;37259;49.972;19.850;2022-09-01T04:53:02;2.6;;;5.5;;
51194;SDS011;37259;49.972;19.850;2022-09-01T04:54:01;2.6;;;5.5;;
51194;SDS011;37259;49.972;19.850;2022-09-01T04:55:01;2.6;;;5.5;;
51194;SDS011;37259;49.972;19.850;2022-09-01T04:56:01;2.6;;;5.5;;
51194;SDS011;37259;49.972;19.850;2022-09-01T04:57:01;2.6;;;5.5;;
51194;SDS011;37259;49.972;19.850;2022-09-01T04:58:01;2.6;;;5.5;;
51194;SDS011;37259;49.972;19.850;2022-09-01T04:59:01;2.3;;;5.7;;
51194;SDS011;37259;49.972;19.850;2022-09-01T05:00:01;2.3;;;5.7;;
51194;SDS011;37259;49.972;19.850;2022-09-01T05:01:01;2.3;;;5.7;;
51194;SDS011;37259;49.972;19.850;2022-09-01T05:02:01;2.3;;;5.7;;
51194;SDS011;37259;49.972;19.850;2022-09-01T05:03:02;2.3;;;5.7;;
51194;SDS011;37259;49.972;19.850;2022-09-01T05:04:01;2.3;;;5.7;;
51194;SDS011;37259;49.972;19.850;2022-09-01T05:05:01;2.3;;;5.7;;
51194;SDS011;37259;49.972;19.850;2022-09-01T05:06:01;2.3;;;5.7;;
51194;SDS011;37259;49.972;19.850;2022-09-01T05:07:02;2.3;;;5.7;;
51194;SDS011;37259;49.972;19.850;2022-09-01T05:08:01;2.3;;;5.7;;
51194;SDS011;37259;49.972;19.850;2022-09-01T05:09:01;2.3;;;5.7;;
51194;SDS011;37259;49.972;19.850;2022-09-01T05:10:01;2.3;;;5.7;;
51194;SDS011;37259;49.972;19.850;2022-09-01T05:11:02;2.3;;;5.7;;
51194;SDS011;37259;49.972;19.850;2022-09-01T05:12:01;2.3;;;5.7;;
51194;SDS011;37259;49.972;19.850;2022-09-01T05:13:01;2.3;;;5.7;;
51194;SDS011;37259;49.972;19.850;2022-09-01T05:14:01;2.3;;;5.7;;
51194;SDS011;37259;49.972;19.850;2022-09-01T05:15:01;2.3;;;5.7;;
51194;SDS011;37259;49.972;19.850;2022-09-01T05:16:02;2.3;;;5.7;;
51194;SDS011;37259;49.972;19.850;2022-09-01T05:17:01;2.3;;;5.7;;
51194;SDS011;37259;49.972;19.850;2022-09-01T05:18:01;2.3;;;5.7;;
51194;SDS011;37259;49.972;19.850;2022-09-01T05:19:01;2.3;;;5.7;;
51194;SDS011;37259;49.972;19.850;2022-09-01T05:20:01;2.3;;;5.7;;
51194;SDS011;37259;49.972;19.850;2022-09-01T05:21:04;2.3;;;5.7;;
51194;SDS011;37259;49.972;19.850;2022-09-01T05:22:01;2.3;;;5.7;;
51194;SDS011;37259;49.972;19.850;2022-09-01T05:23:01;2.3;;;5.7;;
51194;SDS011;37259;49.972;19.850;2022-09-01T05:24:01;2.3;;;5.7;;
51194;SDS011;37259;49.972;19.850;2022-09-01T05:25:01;2.3;;;5.7;;
51194;SDS011;37259;49.972;19.850;2022-09-01T05:26:01;2.3;;;5.7;;
51194;SDS011;37259;49.972;19.850;2022-09-01T05:27:01;2.3;;;5.7;;
51194;SDS011;37259;49.972;19.850;2022-09-01T05:28:01;2.3;;;5.7;;
51194;SDS011;37259;49.972;19.850;2022-09-01T05:29:02;2.7;;;6.6;;
51194;SDS011;37259;49.972;19.850;2022-09-01T05:30:01;2.7;;;6.6;;
51194;SDS011;37259;49.972;19.850;2022-09-01T05:31:01;2.7;;;6.6;;
51194;SDS011;37259;49.972;19.850;2022-09-01T05:32:01;2.7;;;6.6;;
51194;SDS011;37259;49.972;19.850;2022-09-01T05:33:01;2.7;;;6.6;;
51194;SDS011;37259;49.972;19.850;2022-09-01T05:34:01;2.7;;;6.6;;
51194;SDS011;37259;49.972;19.850;2022-09-01T05:35:01;2.7;;;6.6;;
51194;SDS011;37259;49.972;19.850;2022-09-01T05:36:01;2.7;;;6.6;;
51194;SDS011;37259;49.972;19.850;2022-09-01T05:37:01;2.7;;;6.6;;
51194;SDS011;37259;49.972;19.850;2022-09-01T05:38:01;2.7;;;6.6;;
51194;SDS011;37259;49.972;19.850;2022-09-01T05:39:02;2.7;;;6.6;;
51194;SDS011;37259;49.972;19.850;2022-09-01T05:40:01;2.7;;;6.6;;
51194;SDS011;37259;49.972;19.850;2022-09-01T05:41:02;2.7;;;6.6;;
51194;SDS011;37259;49.972;19.850;2022-09-01T05:42:01;2.7;;;6.6;;
51194;SDS011;37259;49.972;19.850;2022-09-01T05:43:01;2.7;;;6.6;;
51194;SDS011;37259;49.972;19.850;2022-09-01T05:44:01;2.7;;;6.6;;
51194;SDS011;37259;49.972;19.850;2022-09-01T05:45:01;2.7;;;6.6;;
51194;SDS011;37259;49.972;19.850;2022-09-01T05:46:01;2.7;;;6.6;;
51194;SDS011;37259;49.972;19.850;2022-09-01T05:47:01;2.7;;;6.6;;
51194;SDS011;37259;49.972;19.850;2022-09-01T05:48:01;2.7;;;6.6;;
51194;SDS011;37259;49.972;19.850;2022-09-01T05:49:01;2.7;;;6.6;;
51194;SDS011;37259;49.972;19.850;2022-09-01T05:50:01;2.7;;;6.6;;
51194;SDS011;37259;49.972;19.850;2022-09-01T05:51:03;2.7;;;6.6;;
51194;SDS011;37259;49.972;19.850;2022-09-01T05:52:01;2.7;;;6.6;;
51194;SDS011;37259;49.972;19.850;2022-09-01T05:53:01;2.7;;;6.6;;
51194;SDS011;37259;49.972;19.850;2022-09-01T05:54:01;2.7;;;6.6;;
51194;SDS011;37259;49.972;19.850;2022-09-01T05:55:01;2.7;;;6.6;;
51194;SDS011;37259;49.972;19.850;2022-09-01T05:56:05;2.7;;;6.6;;
51194;SDS011;37259;49.972;19.850;2022-09-01T05:57:01;2.7;;;6.6;;
51194;SDS011;37259;49.972;19.850;2022-09-01T05:58:01;2.7;;;6.6;;
51194;SDS011;37259;49.972;19.850;2022-09-01T05:59:01;3.1;;;5.5;;
51194;SDS011;37259;49.972;19.850;2022-09-01T06:00:03;3.1;;;5.5;;
51194;SDS011;37259;49.972;19.850;2022-09-01T06:01:01;3.1;;;5.5;;
51194;SDS011;37259;49.972;19.850;2022-09-01T06:02:01;3.1;;;5.5;;
51194;SDS011;37259;49.972;19.850;2022-09-01T06:03:01;3.1;;;5.5;;
51194;SDS011;37259;49.972;19.850;2022-09-01T06:04:01;3.1;;;5.5;;
51194;SDS011;37259;49.972;19.850;2022-09-01T06:05:01;3.1;;;5.5;;
51194;SDS011;37259;49.972;19.850;2022-09-01T06:06:02;3.1;;;5.5;;
51194;SDS011;37259;49.972;19.850;2022-09-01T06:07:01;3.1;;;5.5;;
51194;SDS011;37259;49.972;19.850;2022-09-01T06:08:01;3.1;;;5.5;;
51194;SDS011;37259;49.972;19.850;2022-09-01T06:09:01;3.1;;;5.5;;